createdAt,value
2023-01-04T00:01:21.327Z,73.72
2023-01-04T00:03:47.990Z,72.85
2023-01-04T00:06:16.539Z,72.92
2023-01-04T00:08:42.894Z,72.63
2023-01-04T00:11:13.476Z,72.34
2023-01-04T00:13:40.382Z,72.87
2023-01-04T00:16:10.757Z,72.05
2023-01-04T00:18:37.205Z,72.00
2023-01-04T00:21:35.995Z,71.70
2023-01-04T00:24:02.384Z,73.23
2023-01-04T00:26:31.641Z,72.51
2023-01-04T00:29:00.752Z,73.35
2023-01-04T00:31:28.465Z,72.80
2023-01-04T00:33:56.472Z,73.04
2023-01-04T00:36:23.463Z,73.83
2023-01-04T00:39:06.953Z,75.59
2023-01-04T00:41:58.617Z,76.86
2023-01-04T00:44:26.159Z,77.69
2023-01-04T00:46:52.715Z,80.29
2023-01-04T00:49:19.163Z,80.38
2023-01-04T00:51:45.489Z,81.11
2023-01-04T00:54:15.867Z,81.67
2023-01-04T00:56:42.979Z,80.81
2023-01-04T00:59:11.917Z,81.18
2023-01-04T01:01:39.852Z,82.27
2023-01-04T01:04:06.784Z,82.18
2023-01-04T01:06:33.942Z,82.46
2023-01-04T01:09:01.438Z,81.69
2023-01-04T01:11:29.222Z,80.65
2023-01-04T01:13:56.073Z,81.99
2023-01-04T01:16:51.815Z,81.16
2023-01-04T01:19:10.627Z,81.06
2023-01-04T01:21:37.833Z,82.81
2023-01-04T01:24:05.206Z,82.68
2023-01-04T01:26:31.787Z,83.26
2023-01-04T01:28:59.743Z,83.35
2023-01-04T01:31:28.410Z,83.51
2023-01-04T01:33:56.684Z,84.37
2023-01-04T01:36:24.815Z,84.75
2023-01-04T01:38:54.427Z,84.72
2023-01-04T01:41:25.555Z,85.12
2023-01-04T01:44:00.491Z,86.23
2023-01-04T01:46:43.285Z,86.45
2023-01-04T01:49:21.580Z,85.64
2023-01-04T01:51:48.000Z,85.84
2023-01-04T01:54:20.862Z,87.17
2023-01-04T01:56:49.612Z,87.36
2023-01-04T01:59:17.939Z,87.39
2023-01-04T02:01:44.994Z,89.39
2023-01-04T02:04:13.473Z,89.73
2023-01-04T02:06:44.854Z,88.82
2023-01-04T02:09:12.314Z,88.06
2023-01-04T02:11:38.660Z,89.06
2023-01-04T02:14:26.648Z,88.69
2023-01-04T02:17:01.810Z,89.07
2023-01-04T02:19:34.364Z,88.66
2023-01-04T02:22:38.291Z,88.65
2023-01-04T02:25:50.423Z,86.58
2023-01-04T02:28:28.702Z,86.09
2023-01-04T02:31:22.168Z,85.85
2023-01-04T02:33:56.910Z,86.50
2023-01-04T02:36:37.725Z,86.59
2023-01-04T02:39:41.493Z,85.29
2023-01-04T02:42:45.621Z,84.36
2023-01-04T02:45:15.353Z,85.16
2023-01-04T02:48:01.620Z,84.42
2023-01-04T02:50:36.172Z,84.54
2023-01-04T02:53:14.663Z,84.72
2023-01-04T02:56:05.873Z,83.11
2023-01-04T02:58:54.167Z,84.07
2023-01-04T03:01:42.435Z,82.96
2023-01-04T03:04:44.720Z,82.55
2023-01-04T03:07:27.840Z,83.32
2023-01-04T03:10:02.575Z,84.16
2023-01-04T03:12:35.738Z,84.26
2023-01-04T03:15:26.623Z,84.11
2023-01-04T03:17:57.923Z,82.79
2023-01-04T03:20:27.942Z,83.26
2023-01-04T03:23:17.527Z,84.22
2023-01-04T03:26:08.766Z,81.35
2023-01-04T03:28:56.321Z,82.06
2023-01-04T03:31:51.187Z,84.11
2023-01-04T03:34:36.385Z,83.48
2023-01-04T03:37:11.585Z,84.42
2023-01-04T03:40:23.383Z,85.28
2023-01-04T03:43:31.479Z,86.54
2023-01-04T03:46:24.292Z,88.05
2023-01-04T03:48:57.253Z,88.00
2023-01-04T03:51:29.314Z,88.14
2023-01-04T03:54:17.733Z,85.92
2023-01-04T03:56:45.449Z,86.61
2023-01-04T03:59:13.015Z,87.42
2023-01-04T04:01:42.526Z,86.83
2023-01-04T04:04:28.453Z,86.00
2023-01-04T04:07:13.511Z,86.73
2023-01-04T04:09:39.946Z,86.16
2023-01-04T04:12:06.387Z,85.24
2023-01-04T04:14:32.764Z,86.12
2023-01-04T04:16:59.243Z,85.83
2023-01-04T04:19:25.691Z,85.87
2023-01-04T04:21:52.013Z,87.30
2023-01-04T04:24:21.324Z,88.49
2023-01-04T04:26:47.767Z,86.81
2023-01-04T04:29:14.164Z,88.52
2023-01-04T04:31:40.622Z,87.68
2023-01-04T04:34:07.078Z,87.77
2023-01-04T04:36:33.435Z,87.02
2023-01-04T04:38:59.767Z,86.35
2023-01-04T04:41:38.361Z,88.06
2023-01-04T04:44:11.198Z,87.78
2023-01-04T04:46:37.903Z,85.31
2023-01-04T04:49:05.383Z,85.66
2023-01-04T04:51:31.868Z,85.47
2023-01-04T04:53:58.368Z,86.02
2023-01-04T04:56:24.770Z,85.42
2023-01-04T04:58:51.291Z,86.78
2023-01-04T05:01:17.926Z,85.39
2023-01-04T05:03:44.486Z,83.62
2023-01-04T05:06:11.401Z,83.57
2023-01-04T05:08:37.833Z,85.01
2023-01-04T05:11:07.298Z,85.05
2023-01-04T05:13:34.659Z,85.95
2023-01-04T05:16:02.856Z,84.34
2023-01-04T05:18:29.368Z,85.73
2023-01-04T05:20:55.757Z,84.55
2023-01-04T05:23:23.234Z,85.80
2023-01-04T05:25:56.533Z,84.82
2023-01-04T05:28:22.883Z,86.51
2023-01-04T05:30:50.772Z,85.02
2023-01-04T05:33:29.249Z,85.45
2023-01-04T05:35:57.654Z,84.05
2023-01-04T05:38:24.595Z,84.11
2023-01-04T05:40:51.443Z,83.36
2023-01-04T05:43:19.612Z,81.61
2023-01-04T05:45:58.277Z,83.39
2023-01-04T05:48:25.100Z,84.68
2023-01-04T05:50:53.141Z,85.07
2023-01-04T05:53:19.629Z,85.87
2023-01-04T05:55:49.175Z,83.86
2023-01-04T05:58:15.904Z,83.08
2023-01-04T06:00:42.301Z,83.49
2023-01-04T06:03:08.813Z,82.66
2023-01-04T06:05:35.297Z,83.19
2023-01-04T06:08:01.887Z,84.13
2023-01-04T06:10:28.299Z,82.61
2023-01-04T06:12:54.695Z,83.62
2023-01-04T06:15:21.102Z,84.10
2023-01-04T06:17:47.522Z,83.96
2023-01-04T06:20:13.851Z,82.54
2023-01-04T06:22:41.356Z,84.31
2023-01-04T06:25:09.175Z,84.60
2023-01-04T06:27:35.885Z,83.81
2023-01-04T06:30:02.315Z,84.22
2023-01-04T06:32:28.742Z,84.58
2023-01-04T06:34:55.148Z,82.41
2023-01-04T06:37:21.767Z,83.66
2023-01-04T06:39:48.193Z,83.71
2023-01-04T06:42:33.248Z,85.33
2023-01-04T06:44:59.713Z,83.45
2023-01-04T06:47:26.143Z,84.34
2023-01-04T06:49:52.602Z,83.41
2023-01-04T06:52:19.407Z,85.06
2023-01-04T06:54:45.772Z,85.96
2023-01-04T06:57:12.827Z,84.81
2023-01-04T06:59:39.240Z,83.89
2023-01-04T07:02:05.752Z,83.61
2023-01-04T07:04:32.314Z,85.83
2023-01-04T07:06:58.816Z,84.47
2023-01-04T07:09:25.185Z,86.15
2023-01-04T07:11:51.555Z,83.85
2023-01-04T07:14:18.135Z,83.31
2023-01-04T07:16:44.597Z,84.21
2023-01-04T07:19:11.038Z,84.12
2023-01-04T07:21:37.446Z,84.44
2023-01-04T07:24:03.887Z,85.51
2023-01-04T07:26:33.702Z,84.53
2023-01-04T07:29:15.555Z,85.51
2023-01-04T07:31:43.095Z,84.33
2023-01-04T07:34:09.457Z,86.88
2023-01-04T07:36:35.829Z,85.58
2023-01-04T07:39:02.700Z,84.70
2023-01-04T07:41:29.073Z,84.92
2023-01-04T07:43:55.411Z,85.68
2023-01-04T07:46:22.270Z,88.39
2023-01-04T07:48:48.924Z,86.43
2023-01-04T07:51:17.771Z,85.04
2023-01-04T07:53:44.281Z,86.57
2023-01-04T07:56:15.325Z,86.70
2023-01-04T07:58:45.019Z,87.18
2023-01-04T08:01:14.310Z,86.78
2023-01-04T08:03:41.487Z,85.83
2023-01-04T08:06:10.846Z,86.71
2023-01-04T08:08:37.481Z,86.14
2023-01-04T08:11:12.401Z,86.45
2023-01-04T08:13:38.812Z,86.98
2023-01-04T08:16:07.513Z,85.85
2023-01-04T08:18:33.995Z,86.00
2023-01-04T08:21:06.154Z,89.69
2023-01-04T08:23:33.740Z,89.52
2023-01-04T08:26:06.237Z,90.03
2023-01-04T08:28:34.001Z,91.52
2023-01-04T08:31:05.416Z,92.68
2023-01-04T08:33:31.979Z,93.55
2023-01-04T08:36:26.324Z,93.26
2023-01-04T08:39:00.090Z,94.75
2023-01-04T08:41:56.575Z,94.81
2023-01-04T08:44:14.383Z,93.25
2023-01-04T08:46:40.886Z,93.18
2023-01-04T08:49:07.933Z,94.04
2023-01-04T08:51:34.328Z,92.17
2023-01-04T08:54:00.688Z,91.82
2023-01-04T08:56:27.113Z,90.54
2023-01-04T08:58:53.507Z,89.09
2023-01-04T09:01:20.085Z,88.88
2023-01-04T09:03:46.617Z,88.15
2023-01-04T09:06:15.514Z,88.37
2023-01-04T09:08:44.092Z,87.12
2023-01-04T09:11:16.418Z,87.06
2023-01-04T09:13:43.416Z,87.09
2023-01-04T09:16:13.127Z,87.06
2023-01-04T09:18:39.804Z,87.39
2023-01-04T09:21:11.379Z,87.11
2023-01-04T09:23:38.919Z,85.00
2023-01-04T09:26:10.565Z,85.29
2023-01-04T09:28:37.768Z,84.66
2023-01-04T09:31:15.426Z,85.01
2023-01-04T09:34:12.836Z,83.63
2023-01-04T09:36:29.352Z,83.56
2023-01-04T09:38:55.963Z,83.81
2023-01-04T09:41:30.762Z,84.81
2023-01-04T09:44:05.001Z,88.60
2023-01-04T09:46:41.670Z,89.02
2023-01-04T09:49:29.085Z,88.22
2023-01-04T09:52:04.824Z,87.13
2023-01-04T09:54:48.627Z,88.39
2023-01-04T09:57:25.960Z,89.76
2023-01-04T10:00:11.675Z,92.31
2023-01-04T10:02:57.306Z,93.05
2023-01-04T10:05:29.603Z,92.72
2023-01-04T10:08:00.846Z,93.93
2023-01-04T10:11:01.013Z,94.46
2023-01-04T10:13:33.160Z,94.90
2023-01-04T10:21:14.602Z,93.84
2023-01-04T10:23:07.137Z,94.82
2023-01-04T10:25:54.623Z,94.75
2023-01-04T10:28:39.823Z,96.37
2023-01-04T10:31:39.711Z,95.97
2023-01-04T10:34:22.255Z,96.27
2023-01-04T10:36:51.414Z,97.11
2023-01-04T10:39:24.591Z,97.53
2023-01-04T10:42:03.850Z,98.04
2023-01-04T10:44:51.993Z,97.75
2023-01-04T10:47:47.471Z,99.18
2023-01-04T10:50:25.023Z,98.37
2023-01-04T10:53:05.093Z,97.64
2023-01-04T10:56:25.382Z,98.20
2023-01-04T10:59:14.806Z,99.70
2023-01-04T11:01:50.744Z,98.46
2023-01-04T11:04:38.588Z,99.50
2023-01-04T11:07:16.589Z,99.32
2023-01-04T11:09:57.729Z,100.00
2023-01-04T11:12:25.821Z,100.00
2023-01-04T11:14:52.714Z,99.14
2023-01-04T11:17:21.207Z,100.00
2023-01-04T11:19:48.102Z,100.00
2023-01-04T11:22:20.692Z,100.00
2023-01-04T11:25:24.643Z,100.00
2023-01-04T11:27:58.409Z,100.00
2023-01-04T11:30:49.892Z,100.00
2023-01-04T11:33:19.456Z,100.00
2023-01-04T11:35:55.613Z,100.00
2023-01-04T11:38:25.280Z,100.00
2023-01-04T11:41:05.391Z,100.00
2023-01-04T11:43:34.521Z,100.00
2023-01-04T11:46:17.395Z,100.00
2023-01-04T11:48:47.050Z,100.00
2023-01-04T11:51:28.792Z,100.00
2023-01-04T11:54:21.036Z,100.00
2023-01-04T11:57:00.676Z,100.00
2023-01-04T11:59:27.697Z,98.68
2023-01-04T12:02:35.244Z,99.50
2023-01-04T12:08:05.989Z,100.00
2023-01-04T12:10:32.370Z,100.00
2023-01-04T12:13:01.369Z,100.00
2023-01-04T12:15:38.516Z,100.00
2023-01-04T12:18:14.218Z,100.00
2023-01-04T12:20:40.688Z,100.00
2023-01-04T12:23:07.232Z,100.00
2023-01-04T12:25:45.342Z,100.00
2023-01-04T12:28:33.379Z,100.00
2023-01-04T12:31:19.502Z,100.00
2023-01-04T12:33:52.648Z,100.00
2023-01-04T12:36:21.450Z,100.00
2023-01-04T12:39:05.370Z,100.00
2023-01-04T12:41:34.858Z,100.00
2023-01-04T12:44:03.237Z,100.00
2023-01-04T12:46:48.234Z,100.00
2023-01-04T12:49:26.439Z,100.00
2023-01-04T12:55:00.501Z,100.00
2023-01-04T12:57:37.711Z,100.00
2023-01-04T13:00:15.498Z,100.00
2023-01-04T13:03:05.773Z,100.00
2023-01-04T13:08:23.300Z,100.00
2023-01-04T13:10:51.727Z,100.00
2023-01-04T13:13:43.476Z,100.00
2023-01-04T13:16:17.369Z,100.00
2023-01-04T13:18:50.330Z,100.00
2023-01-04T13:21:38.867Z,100.00
2023-01-04T13:24:31.095Z,100.00
2023-01-04T13:27:06.869Z,100.00
2023-01-04T13:29:35.214Z,100.00
2023-01-04T13:32:11.404Z,100.00
2023-01-04T13:34:39.222Z,100.00
2023-01-04T13:37:08.359Z,100.00
2023-01-04T13:39:47.053Z,100.00
2023-01-04T13:42:29.298Z,100.00
2023-01-04T13:45:35.583Z,100.00
2023-01-04T13:48:05.624Z,100.00
2023-01-04T13:50:39.881Z,100.00
2023-01-04T13:53:08.549Z,100.00
2023-01-04T13:55:37.922Z,100.00
2023-01-04T13:58:07.324Z,100.00
2023-01-04T14:00:45.061Z,100.00
2023-01-04T14:03:43.194Z,100.00
2023-01-04T14:06:09.540Z,100.00
2023-01-04T14:08:55.155Z,100.00
2023-01-04T14:11:45.360Z,100.00
2023-01-04T14:14:29.077Z,100.00
2023-01-04T14:17:34.002Z,100.00
2023-01-04T14:20:04.366Z,100.00
2023-01-04T14:22:34.511Z,100.00
2023-01-04T14:25:48.215Z,99.48
2023-01-04T14:28:29.736Z,100.00
2023-01-04T14:30:59.247Z,100.00
2023-01-04T14:33:40.994Z,100.00
2023-01-04T14:36:10.243Z,100.00
2023-01-04T14:38:43.841Z,100.00
2023-01-04T14:41:32.689Z,100.00
2023-01-04T14:44:24.032Z,100.00
2023-01-04T14:46:53.318Z,100.00
2023-01-04T14:49:21.856Z,100.00
2023-01-04T14:51:54.250Z,100.00
2023-01-04T14:54:24.988Z,100.00
2023-01-04T14:56:54.095Z,100.00
2023-01-04T14:59:23.856Z,100.00
2023-01-04T15:01:52.177Z,100.00
2023-01-04T15:04:18.741Z,100.00
2023-01-04T15:06:54.814Z,100.00
2023-01-04T15:09:21.586Z,100.00
2023-01-04T15:11:48.180Z,100.00
2023-01-04T15:14:14.696Z,100.00
2023-01-04T15:16:41.167Z,100.00
2023-01-04T15:19:07.670Z,99.32
2023-01-04T15:21:40.369Z,99.86
2023-01-04T15:24:08.209Z,100.00
2023-01-04T15:26:34.662Z,98.08
2023-01-04T15:29:01.179Z,97.29
2023-01-04T15:31:32.376Z,97.21
2023-01-04T15:34:03.601Z,97.18
2023-01-04T15:36:30.015Z,96.21
2023-01-04T15:38:56.427Z,97.89
2023-01-04T15:41:41.442Z,96.77
2023-01-04T15:44:09.665Z,98.96
2023-01-04T15:46:36.096Z,99.33
2023-01-04T15:49:02.562Z,100.00
2023-01-04T15:51:28.898Z,98.95
2023-01-04T15:53:56.536Z,100.00
2023-01-04T15:56:23.173Z,100.00
2023-01-04T15:58:56.256Z,100.00
2023-01-04T16:01:23.105Z,100.00
2023-01-04T16:03:53.989Z,100.00
2023-01-04T16:06:21.497Z,100.00
2023-01-04T16:08:49.624Z,100.00
2023-01-04T16:11:18.555Z,100.00
2023-01-04T16:13:46.987Z,100.00
2023-01-04T16:16:13.785Z,100.00
2023-01-04T16:18:48.583Z,100.00
2023-01-04T16:21:16.096Z,100.00
2023-01-04T16:23:42.458Z,100.00
2023-01-04T16:26:14.619Z,100.00
2023-01-04T16:28:41.368Z,100.00
2023-01-04T16:31:08.723Z,100.00
2023-01-04T16:33:35.911Z,100.00
2023-01-04T16:36:05.589Z,100.00
2023-01-04T16:38:42.167Z,100.00
2023-01-04T16:41:31.760Z,100.00
2023-01-04T16:43:59.453Z,100.00
2023-01-04T16:46:31.101Z,100.00
2023-01-04T16:49:02.215Z,100.00
2023-01-04T16:51:30.704Z,100.00
2023-01-04T16:53:57.228Z,100.00
2023-01-04T16:56:25.009Z,100.00
2023-01-04T16:58:52.029Z,100.00
2023-01-04T17:01:24.419Z,100.00
2023-01-04T17:03:55.476Z,100.00
2023-01-04T17:06:25.842Z,100.00
2023-01-04T17:08:54.233Z,100.00
2023-01-04T17:12:19.210Z,100.00
2023-01-04T17:14:12.741Z,99.62
2023-01-04T17:16:40.790Z,99.09
2023-01-04T17:19:07.487Z,98.47
2023-01-04T17:21:35.303Z,96.85
2023-01-04T17:24:03.397Z,97.26
2023-01-04T17:26:32.540Z,96.53
2023-01-04T17:29:00.162Z,94.99
2023-01-04T17:31:29.242Z,94.77
2023-01-04T17:33:56.003Z,94.00
2023-01-04T17:36:23.288Z,92.79
2023-01-04T17:38:51.523Z,92.93
2023-01-04T17:41:23.799Z,92.82
2023-01-04T17:43:52.806Z,92.46
2023-01-04T17:46:23.356Z,90.50
2023-01-04T17:48:59.022Z,91.97
2023-01-04T17:51:38.095Z,91.38
2023-01-04T17:54:05.799Z,92.14
2023-01-04T17:56:37.278Z,91.24
2023-01-04T17:59:06.839Z,90.61
2023-01-04T18:01:34.816Z,90.88
2023-01-04T18:04:02.479Z,89.06
2023-01-04T18:06:32.943Z,89.13
2023-01-04T18:09:00.890Z,89.41
2023-01-04T18:11:27.846Z,88.78
2023-01-04T18:13:54.732Z,89.94
2023-01-04T18:16:27.015Z,89.89
2023-01-04T18:18:58.116Z,89.61
2023-01-04T18:21:31.666Z,89.81
2023-01-04T18:27:19.854Z,89.14
2023-01-04T18:29:33.224Z,88.41
2023-01-04T18:31:59.638Z,88.16
2023-01-04T18:34:26.658Z,88.88
2023-01-04T18:36:53.406Z,87.98
2023-01-04T18:39:19.944Z,88.71
2023-01-04T18:41:46.322Z,88.81
2023-01-04T18:44:32.138Z,87.13
2023-01-04T18:46:59.261Z,87.26
2023-01-04T18:49:25.863Z,87.94
2023-01-04T18:51:52.299Z,87.17
2023-01-04T18:54:20.688Z,86.91
2023-01-04T18:56:47.767Z,86.96
2023-01-04T18:59:17.087Z,86.91
2023-01-04T19:01:44.754Z,86.80
2023-01-04T19:04:12.402Z,87.46
2023-01-04T19:06:40.279Z,86.49
2023-01-04T19:09:07.461Z,87.30
2023-01-04T19:11:34.600Z,86.07
2023-01-04T19:14:01.530Z,85.08
2023-01-04T19:16:31.510Z,86.32
2023-01-04T19:19:01.262Z,85.45
2023-01-04T19:21:28.643Z,86.51
2023-01-04T19:23:55.515Z,86.85
2023-01-04T19:26:22.675Z,87.23
2023-01-04T19:28:49.483Z,86.50
2023-01-04T19:31:17.316Z,85.43
2023-01-04T19:33:43.996Z,84.77
2023-01-04T19:36:12.099Z,83.92
2023-01-04T19:38:38.984Z,84.19
2023-01-04T19:41:06.432Z,83.73
2023-01-04T19:43:33.398Z,83.87
2023-01-04T19:46:00.123Z,83.33
2023-01-04T19:48:27.265Z,84.00
2023-01-04T19:51:14.372Z,84.17
2023-01-04T19:53:42.725Z,84.44
2023-01-04T19:56:10.475Z,84.61
2023-01-04T19:58:38.466Z,84.13
2023-01-04T20:01:05.759Z,83.93
2023-01-04T20:03:32.987Z,83.60
2023-01-04T20:06:04.578Z,83.02
2023-01-04T20:08:31.359Z,82.54
2023-01-04T20:10:59.102Z,82.08
2023-01-04T20:13:28.133Z,81.70
2023-01-04T20:15:54.610Z,81.28
2023-01-04T20:18:22.036Z,81.03
2023-01-04T20:20:48.519Z,80.94
2023-01-04T20:23:15.676Z,81.23
2023-01-04T20:25:44.368Z,81.19
2023-01-04T20:28:11.348Z,80.52
2023-01-04T20:30:41.010Z,79.72
2023-01-04T20:33:07.949Z,80.22
2023-01-04T20:35:38.581Z,79.16
2023-01-04T20:38:05.120Z,79.69
2023-01-04T20:40:31.544Z,79.44
2023-01-04T20:43:16.533Z,78.02
2023-01-04T20:45:44.379Z,79.65
2023-01-04T20:48:11.449Z,78.92
2023-01-04T20:50:37.987Z,78.01
2023-01-04T20:53:04.567Z,79.19
2023-01-04T20:55:31.372Z,79.92
2023-01-04T20:57:57.918Z,79.19
2023-01-04T21:00:24.521Z,79.93
2023-01-04T21:02:51.032Z,80.73
2023-01-04T21:05:17.617Z,80.51
2023-01-04T21:07:43.938Z,79.40
2023-01-04T21:10:10.348Z,80.32
2023-01-04T21:12:38.288Z,80.32
2023-01-04T21:15:04.854Z,79.57
2023-01-04T21:17:32.869Z,80.22
2023-01-04T21:20:02.636Z,80.46
2023-01-04T21:22:30.905Z,79.48
2023-01-04T21:24:59.946Z,79.21
2023-01-04T21:27:29.136Z,79.02
2023-01-04T21:29:55.789Z,78.60
2023-01-04T21:32:22.189Z,78.83
2023-01-04T21:34:48.543Z,78.17
2023-01-04T21:37:14.926Z,79.08
2023-01-04T21:39:41.346Z,79.67
2023-01-04T21:42:07.679Z,78.08
2023-01-04T21:44:34.232Z,78.07
2023-01-04T21:47:00.658Z,77.41
2023-01-04T21:49:27.056Z,77.62
2023-01-04T21:51:53.471Z,76.44
2023-01-04T21:54:19.906Z,77.05
2023-01-04T21:56:46.444Z,76.81
2023-01-04T21:59:12.810Z,77.32
2023-01-04T22:01:39.269Z,75.99
2023-01-04T22:04:05.811Z,76.67
2023-01-04T22:06:34.017Z,78.82
2023-01-04T22:09:00.419Z,77.77
2023-01-04T22:11:26.803Z,77.98
2023-01-04T22:13:53.228Z,77.33
2023-01-04T22:16:19.632Z,77.57
2023-01-04T22:18:49.569Z,79.18
2023-01-04T22:21:18.598Z,77.56
2023-01-04T22:23:45.418Z,77.57
2023-01-04T22:26:11.929Z,78.87
2023-01-04T22:28:39.981Z,79.56
2023-01-04T22:31:08.505Z,78.90
2023-01-04T22:33:36.049Z,78.55
2023-01-04T22:36:17.395Z,78.43
2023-01-04T22:38:49.028Z,77.26
2023-01-04T22:41:18.831Z,78.32
2023-01-04T22:43:45.967Z,79.02
2023-01-04T22:46:17.446Z,77.60
2023-01-04T22:48:44.580Z,78.03
2023-01-04T22:51:13.852Z,77.34
2023-01-04T22:53:40.783Z,77.42
2023-01-04T22:56:21.943Z,75.95
2023-01-04T22:58:54.359Z,77.19
2023-01-04T23:01:26.902Z,76.75
2023-01-04T23:03:54.631Z,75.91
2023-01-04T23:06:21.798Z,75.77
2023-01-04T23:08:48.715Z,75.84
2023-01-04T23:11:17.924Z,74.52
2023-01-04T23:13:45.414Z,75.44
2023-01-04T23:16:14.596Z,75.54
2023-01-04T23:18:41.261Z,76.77
2023-01-04T23:21:07.816Z,75.22
2023-01-04T23:23:34.598Z,74.23
2023-01-04T23:26:15.536Z,75.53
2023-01-04T23:28:43.010Z,75.68
2023-01-04T23:31:12.386Z,74.73
2023-01-04T23:33:39.379Z,74.19
2023-01-04T23:36:12.023Z,74.83
2023-01-04T23:38:40.072Z,75.20
2023-01-04T23:41:07.380Z,74.78
2023-01-04T23:43:38.305Z,73.90
2023-01-04T23:48:35.884Z,73.99
2023-01-04T23:51:02.252Z,74.23
2023-01-04T23:53:28.946Z,72.97
2023-01-04T23:56:01.951Z,72.99
2023-01-04T23:58:28.879Z,73.32
